sensor_id;sensor_type;location;lat;lon;timestamp;P1;durP1;ratioP1;P2;durP2;ratioP2
24173;SDS011;12324;48.146;11.502;2023-03-23T00:00:53;9.65;;;4.07;;
24173;SDS011;12324;48.146;11.502;2023-03-23T00:03:20;8.40;;;3.50;;
24173;SDS011;12324;48.146;11.502;2023-03-23T00:05:46;12.85;;;3.85;;
24173;SDS011;12324;48.146;11.502;2023-03-23T00:08:15;9.68;;;3.58;;
24173;SDS011;12324;48.146;11.502;2023-03-23T00:10:41;9.80;;;3.47;;
24173;SDS011;12324;48.146;11.502;2023-03-23T00:13:07;7.72;;;3.50;;
24173;SDS011;12324;48.146;11.502;2023-03-23T00:15:33;9.38;;;3.47;;
24173;SDS011;12324;48.146;11.502;2023-03-23T00:18:00;8.30;;;3.35;;
24173;SDS011;12324;48.146;11.502;2023-03-23T00:20:30;8.63;;;3.70;;
24173;SDS011;12324;48.146;11.502;2023-03-23T00:23:04;8.80;;;3.35;;
24173;SDS011;12324;48.146;11.502;2023-03-23T00:25:32;7.32;;;3.28;;
24173;SDS011;12324;48.146;11.502;2023-03-23T00:27:58;9.68;;;3.78;;
24173;SDS011;12324;48.146;11.502;2023-03-23T00:30:25;6.30;;;3.05;;
24173;SDS011;12324;48.146;11.502;2023-03-23T00:32:51;7.07;;;3.13;;
24173;SDS011;12324;48.146;11.502;2023-03-23T00:35:17;12.50;;;4.05;;
24173;SDS011;12324;48.146;11.502;2023-03-23T00:37:44;6.15;;;3.05;;
24173;SDS011;12324;48.146;11.502;2023-03-23T00:40:10;7.75;;;3.13;;
24173;SDS011;12324;48.146;11.502;2023-03-23T00:42:37;7.28;;;3.17;;
24173;SDS011;12324;48.146;11.502;2023-03-23T00:45:03;5.50;;;2.75;;
24173;SDS011;12324;48.146;11.502;2023-03-23T00:47:36;7.97;;;3.38;;
24173;SDS011;12324;48.146;11.502;2023-03-23T00:50:02;8.40;;;3.50;;
24173;SDS011;12324;48.146;11.502;2023-03-23T00:52:30;6.35;;;3.30;;
24173;SDS011;12324;48.146;11.502;2023-03-23T00:54:56;8.00;;;3.30;;
24173;SDS011;12324;48.146;11.502;2023-03-23T00:57:22;6.85;;;3.10;;
24173;SDS011;12324;48.146;11.502;2023-03-23T00:59:52;10.45;;;3.58;;
24173;SDS011;12324;48.146;11.502;2023-03-23T01:02:18;8.50;;;4.05;;
24173;SDS011;12324;48.146;11.502;2023-03-23T01:04:45;8.55;;;3.40;;
24173;SDS011;12324;48.146;11.502;2023-03-23T01:07:11;8.88;;;3.63;;
24173;SDS011;12324;48.146;11.502;2023-03-23T01:09:38;8.82;;;3.50;;
24173;SDS011;12324;48.146;11.502;2023-03-23T01:12:10;7.05;;;3.25;;
24173;SDS011;12324;48.146;11.502;2023-03-23T01:14:36;7.38;;;3.40;;
24173;SDS011;12324;48.146;11.502;2023-03-23T01:17:02;7.43;;;3.45;;
24173;SDS011;12324;48.146;11.502;2023-03-23T01:19:28;9.68;;;3.13;;
24173;SDS011;12324;48.146;11.502;2023-03-23T01:21:54;8.20;;;3.35;;
24173;SDS011;12324;48.146;11.502;2023-03-23T01:24:20;6.68;;;3.22;;
24173;SDS011;12324;48.146;11.502;2023-03-23T01:26:47;8.20;;;3.25;;
24173;SDS011;12324;48.146;11.502;2023-03-23T01:29:13;8.00;;;3.10;;
24173;SDS011;12324;48.146;11.502;2023-03-23T01:31:39;7.10;;;3.13;;
24173;SDS011;12324;48.146;11.502;2023-03-23T01:34:07;6.45;;;2.83;;
24173;SDS011;12324;48.146;11.502;2023-03-23T01:36:33;7.13;;;2.88;;
24173;SDS011;12324;48.146;11.502;2023-03-23T01:39:01;6.03;;;2.70;;
24173;SDS011;12324;48.146;11.502;2023-03-23T01:41:29;5.47;;;2.70;;
24173;SDS011;12324;48.146;11.502;2023-03-23T01:43:57;5.75;;;2.80;;
24173;SDS011;12324;48.146;11.502;2023-03-23T01:46:27;8.93;;;2.90;;
24173;SDS011;12324;48.146;11.502;2023-03-23T01:49:01;7.72;;;3.15;;
24173;SDS011;12324;48.146;11.502;2023-03-23T01:54:02;11.27;;;3.55;;
24173;SDS011;12324;48.146;11.502;2023-03-23T01:56:31;6.55;;;2.95;;
24173;SDS011;12324;48.146;11.502;2023-03-23T01:58:58;6.88;;;3.00;;
24173;SDS011;12324;48.146;11.502;2023-03-23T02:01:24;10.38;;;2.97;;
24173;SDS011;12324;48.146;11.502;2023-03-23T02:03:51;6.63;;;3.08;;
24173;SDS011;12324;48.146;11.502;2023-03-23T02:06:19;9.20;;;3.45;;
24173;SDS011;12324;48.146;11.502;2023-03-23T02:08:44;5.35;;;2.90;;
24173;SDS011;12324;48.146;11.502;2023-03-23T02:11:15;8.02;;;2.97;;
24173;SDS011;12324;48.146;11.502;2023-03-23T02:13:45;4.90;;;2.88;;
24173;SDS011;12324;48.146;11.502;2023-03-23T02:19:08;7.97;;;3.40;;
24173;SDS011;12324;48.146;11.502;2023-03-23T02:21:46;8.35;;;3.40;;
24173;SDS011;12324;48.146;11.502;2023-03-23T02:33:15;6.45;;;2.90;;
24173;SDS011;12324;48.146;11.502;2023-03-23T02:36:20;6.90;;;3.38;;
24173;SDS011;12324;48.146;11.502;2023-03-23T02:41:15;9.05;;;3.30;;
24173;SDS011;12324;48.146;11.502;2023-03-23T02:43:46;6.22;;;2.88;;
24173;SDS011;12324;48.146;11.502;2023-03-23T02:46:13;5.80;;;2.72;;
24173;SDS011;12324;48.146;11.502;2023-03-23T02:48:40;7.57;;;3.53;;
24173;SDS011;12324;48.146;11.502;2023-03-23T02:51:09;7.63;;;3.45;;
24173;SDS011;12324;48.146;11.502;2023-03-23T02:53:37;8.05;;;3.10;;
24173;SDS011;12324;48.146;11.502;2023-03-23T02:56:06;10.18;;;3.10;;
24173;SDS011;12324;48.146;11.502;2023-03-23T02:58:35;7.15;;;3.20;;
24173;SDS011;12324;48.146;11.502;2023-03-23T03:04:05;5.88;;;3.03;;
24173;SDS011;12324;48.146;11.502;2023-03-23T03:12:45;8.32;;;3.20;;
24173;SDS011;12324;48.146;11.502;2023-03-23T03:15:23;7.03;;;3.00;;
24173;SDS011;12324;48.146;11.502;2023-03-23T03:18:12;8.15;;;3.22;;
24173;SDS011;12324;48.146;11.502;2023-03-23T03:20:54;8.27;;;3.17;;
24173;SDS011;12324;48.146;11.502;2023-03-23T03:23:32;6.90;;;3.05;;
24173;SDS011;12324;48.146;11.502;2023-03-23T03:25:59;5.43;;;3.17;;
24173;SDS011;12324;48.146;11.502;2023-03-23T03:28:29;11.32;;;3.20;;
24173;SDS011;12324;48.146;11.502;2023-03-23T03:30:56;8.13;;;2.70;;
24173;SDS011;12324;48.146;11.502;2023-03-23T03:33:25;4.32;;;2.70;;
24173;SDS011;12324;48.146;11.502;2023-03-23T03:35:55;5.47;;;2.97;;
24173;SDS011;12324;48.146;11.502;2023-03-23T03:38:24;9.82;;;2.80;;
24173;SDS011;12324;48.146;11.502;2023-03-23T03:40:51;5.90;;;2.78;;
24173;SDS011;12324;48.146;11.502;2023-03-23T03:43:17;6.43;;;3.22;;
24173;SDS011;12324;48.146;11.502;2023-03-23T03:45:43;6.97;;;2.60;;
24173;SDS011;12324;48.146;11.502;2023-03-23T03:48:09;6.93;;;3.05;;
24173;SDS011;12324;48.146;11.502;2023-03-23T03:50:35;9.32;;;3.17;;
24173;SDS011;12324;48.146;11.502;2023-03-23T03:53:01;6.75;;;3.10;;
24173;SDS011;12324;48.146;11.502;2023-03-23T03:55:27;5.80;;;2.72;;
24173;SDS011;12324;48.146;11.502;2023-03-23T03:57:53;7.88;;;2.72;;
24173;SDS011;12324;48.146;11.502;2023-03-23T04:00:20;7.03;;;3.40;;
24173;SDS011;12324;48.146;11.502;2023-03-23T04:02:47;7.97;;;2.85;;
24173;SDS011;12324;48.146;11.502;2023-03-23T04:05:16;8.30;;;2.95;;
24173;SDS011;12324;48.146;11.502;2023-03-23T04:07:43;8.93;;;3.15;;
24173;SDS011;12324;48.146;11.502;2023-03-23T04:10:09;8.13;;;2.78;;
24173;SDS011;12324;48.146;11.502;2023-03-23T04:12:36;5.90;;;2.80;;
24173;SDS011;12324;48.146;11.502;2023-03-23T04:15:03;8.77;;;2.85;;
24173;SDS011;12324;48.146;11.502;2023-03-23T04:17:29;9.00;;;2.90;;
24173;SDS011;12324;48.146;11.502;2023-03-23T04:19:54;8.55;;;3.40;;
24173;SDS011;12324;48.146;11.502;2023-03-23T04:22:25;9.02;;;3.33;;
24173;SDS011;12324;48.146;11.502;2023-03-23T04:24:58;6.80;;;3.20;;
24173;SDS011;12324;48.146;11.502;2023-03-23T04:27:27;7.50;;;3.17;;
24173;SDS011;12324;48.146;11.502;2023-03-23T04:29:57;7.25;;;2.53;;
24173;SDS011;12324;48.146;11.502;2023-03-23T04:32:26;4.70;;;2.53;;
24173;SDS011;12324;48.146;11.502;2023-03-23T04:34:56;7.72;;;2.95;;
24173;SDS011;12324;48.146;11.502;2023-03-23T04:37:24;5.38;;;2.85;;
24173;SDS011;12324;48.146;11.502;2023-03-23T04:39:57;4.30;;;2.30;;
24173;SDS011;12324;48.146;11.502;2023-03-23T04:42:29;7.55;;;3.33;;
24173;SDS011;12324;48.146;11.502;2023-03-23T04:44:56;5.45;;;2.85;;
24173;SDS011;12324;48.146;11.502;2023-03-23T04:47:23;7.82;;;3.00;;
24173;SDS011;12324;48.146;11.502;2023-03-23T04:49:50;6.60;;;3.00;;
24173;SDS011;12324;48.146;11.502;2023-03-23T04:52:16;5.78;;;3.13;;
24173;SDS011;12324;48.146;11.502;2023-03-23T04:54:43;9.70;;;3.15;;
24173;SDS011;12324;48.146;11.502;2023-03-23T04:57:09;6.55;;;2.60;;
24173;SDS011;12324;48.146;11.502;2023-03-23T04:59:35;4.78;;;2.88;;
24173;SDS011;12324;48.146;11.502;2023-03-23T05:02:00;4.57;;;2.75;;
24173;SDS011;12324;48.146;11.502;2023-03-23T05:04:27;12.68;;;3.10;;
24173;SDS011;12324;48.146;11.502;2023-03-23T05:06:53;7.88;;;3.13;;
24173;SDS011;12324;48.146;11.502;2023-03-23T05:09:18;7.43;;;2.67;;
24173;SDS011;12324;48.146;11.502;2023-03-23T05:11:44;11.43;;;2.97;;
24173;SDS011;12324;48.146;11.502;2023-03-23T05:14:11;9.82;;;2.90;;
24173;SDS011;12324;48.146;11.502;2023-03-23T05:16:36;7.28;;;2.97;;
24173;SDS011;12324;48.146;11.502;2023-03-23T05:19:02;5.80;;;2.33;;
24173;SDS011;12324;48.146;11.502;2023-03-23T05:21:30;10.95;;;3.58;;
24173;SDS011;12324;48.146;11.502;2023-03-23T05:23:56;7.30;;;2.70;;
24173;SDS011;12324;48.146;11.502;2023-03-23T05:26:22;8.02;;;2.58;;
24173;SDS011;12324;48.146;11.502;2023-03-23T05:28:54;6.63;;;3.28;;
24173;SDS011;12324;48.146;11.502;2023-03-23T05:31:20;6.00;;;2.63;;
24173;SDS011;12324;48.146;11.502;2023-03-23T05:33:46;3.80;;;2.50;;
24173;SDS011;12324;48.146;11.502;2023-03-23T05:36:12;6.22;;;2.60;;
24173;SDS011;12324;48.146;11.502;2023-03-23T05:38:41;8.75;;;3.03;;
24173;SDS011;12324;48.146;11.502;2023-03-23T05:41:13;4.55;;;2.55;;
24173;SDS011;12324;48.146;11.502;2023-03-23T05:43:40;8.13;;;2.92;;
24173;SDS011;12324;48.146;11.502;2023-03-23T05:46:05;10.52;;;4.05;;
24173;SDS011;12324;48.146;11.502;2023-03-23T05:48:32;5.28;;;3.03;;
24173;SDS011;12324;48.146;11.502;2023-03-23T05:50:58;7.75;;;2.95;;
24173;SDS011;12324;48.146;11.502;2023-03-23T05:53:24;9.00;;;2.97;;
24173;SDS011;12324;48.146;11.502;2023-03-23T05:55:50;8.13;;;2.97;;
24173;SDS011;12324;48.146;11.502;2023-03-23T05:58:16;8.02;;;3.35;;
24173;SDS011;12324;48.146;11.502;2023-03-23T06:00:42;7.80;;;3.20;;
24173;SDS011;12324;48.146;11.502;2023-03-23T06:03:07;9.75;;;3.22;;
24173;SDS011;12324;48.146;11.502;2023-03-23T06:05:33;6.13;;;3.22;;
24173;SDS011;12324;48.146;11.502;2023-03-23T06:07:59;5.20;;;2.72;;
24173;SDS011;12324;48.146;11.502;2023-03-23T06:10:25;9.77;;;2.72;;
24173;SDS011;12324;48.146;11.502;2023-03-23T06:12:51;7.43;;;3.25;;
24173;SDS011;12324;48.146;11.502;2023-03-23T06:15:17;7.80;;;3.28;;
24173;SDS011;12324;48.146;11.502;2023-03-23T06:17:43;11.32;;;3.72;;
24173;SDS011;12324;48.146;11.502;2023-03-23T06:20:10;10.13;;;3.22;;
24173;SDS011;12324;48.146;11.502;2023-03-23T06:22:37;8.10;;;3.33;;
24173;SDS011;12324;48.146;11.502;2023-03-23T06:25:08;9.40;;;3.28;;
24173;SDS011;12324;48.146;11.502;2023-03-23T06:27:34;12.68;;;3.50;;
24173;SDS011;12324;48.146;11.502;2023-03-23T06:30:01;9.82;;;3.47;;
24173;SDS011;12324;48.146;11.502;2023-03-23T06:32:28;9.70;;;2.95;;
24173;SDS011;12324;48.146;11.502;2023-03-23T06:34:54;9.80;;;3.30;;
24173;SDS011;12324;48.146;11.502;2023-03-23T06:37:22;9.98;;;3.10;;
24173;SDS011;12324;48.146;11.502;2023-03-23T06:39:49;7.28;;;2.90;;
24173;SDS011;12324;48.146;11.502;2023-03-23T06:42:16;9.15;;;3.08;;
24173;SDS011;12324;48.146;11.502;2023-03-23T06:44:43;7.97;;;3.50;;
24173;SDS011;12324;48.146;11.502;2023-03-23T06:47:10;8.38;;;3.33;;
24173;SDS011;12324;48.146;11.502;2023-03-23T06:49:36;19.00;;;4.80;;
24173;SDS011;12324;48.146;11.502;2023-03-23T06:52:02;17.40;;;3.97;;
24173;SDS011;12324;48.146;11.502;2023-03-23T06:54:28;9.02;;;3.38;;
24173;SDS011;12324;48.146;11.502;2023-03-23T06:56:54;13.60;;;3.72;;
24173;SDS011;12324;48.146;11.502;2023-03-23T06:59:20;13.93;;;3.78;;
24173;SDS011;12324;48.146;11.502;2023-03-23T07:01:46;13.40;;;4.13;;
24173;SDS011;12324;48.146;11.502;2023-03-23T07:04:13;19.48;;;4.18;;
24173;SDS011;12324;48.146;11.502;2023-03-23T07:06:39;15.82;;;3.90;;
24173;SDS011;12324;48.146;11.502;2023-03-23T07:09:05;15.00;;;4.13;;
24173;SDS011;12324;48.146;11.502;2023-03-23T07:11:32;10.32;;;3.33;;
24173;SDS011;12324;48.146;11.502;2023-03-23T07:13:58;15.20;;;4.05;;
24173;SDS011;12324;48.146;11.502;2023-03-23T07:16:24;14.13;;;3.58;;
24173;SDS011;12324;48.146;11.502;2023-03-23T07:18:51;14.32;;;3.78;;
24173;SDS011;12324;48.146;11.502;2023-03-23T07:21:17;10.13;;;3.40;;
24173;SDS011;12324;48.146;11.502;2023-03-23T07:23:43;11.77;;;3.10;;
24173;SDS011;12324;48.146;11.502;2023-03-23T07:26:11;8.90;;;3.42;;
24173;SDS011;12324;48.146;11.502;2023-03-23T07:28:37;10.57;;;3.50;;
24173;SDS011;12324;48.146;11.502;2023-03-23T07:31:05;8.77;;;3.40;;
24173;SDS011;12324;48.146;11.502;2023-03-23T07:33:32;9.35;;;3.95;;
24173;SDS011;12324;48.146;11.502;2023-03-23T07:35:59;9.35;;;3.33;;
24173;SDS011;12324;48.146;11.502;2023-03-23T07:38:28;10.60;;;3.78;;
24173;SDS011;12324;48.146;11.502;2023-03-23T07:40:55;8.00;;;3.25;;
24173;SDS011;12324;48.146;11.502;2023-03-23T07:43:21;7.07;;;3.15;;
24173;SDS011;12324;48.146;11.502;2023-03-23T07:45:48;10.13;;;3.28;;
24173;SDS011;12324;48.146;11.502;2023-03-23T07:48:14;7.78;;;2.63;;
24173;SDS011;12324;48.146;11.502;2023-03-23T07:50:40;6.80;;;2.85;;
24173;SDS011;12324;48.146;11.502;2023-03-23T07:53:06;8.18;;;3.08;;
24173;SDS011;12324;48.146;11.502;2023-03-23T07:55:32;9.95;;;3.28;;
24173;SDS011;12324;48.146;11.502;2023-03-23T07:57:58;8.63;;;3.35;;
24173;SDS011;12324;48.146;11.502;2023-03-23T08:00:25;10.70;;;3.47;;
24173;SDS011;12324;48.146;11.502;2023-03-23T08:02:54;10.05;;;3.17;;
24173;SDS011;12324;48.146;11.502;2023-03-23T08:05:21;6.70;;;3.13;;
24173;SDS011;12324;48.146;11.502;2023-03-23T08:07:48;8.27;;;3.17;;
24173;SDS011;12324;48.146;11.502;2023-03-23T08:10:15;8.30;;;2.67;;
24173;SDS011;12324;48.146;11.502;2023-03-23T08:12:43;10.40;;;3.05;;
24173;SDS011;12324;48.146;11.502;2023-03-23T08:15:10;10.90;;;3.83;;
24173;SDS011;12324;48.146;11.502;2023-03-23T08:17:42;14.38;;;3.20;;
24173;SDS011;12324;48.146;11.502;2023-03-23T08:20:09;16.60;;;3.50;;
24173;SDS011;12324;48.146;11.502;2023-03-23T08:22:39;12.75;;;3.03;;
24173;SDS011;12324;48.146;11.502;2023-03-23T08:25:06;10.48;;;3.38;;
24173;SDS011;12324;48.146;11.502;2023-03-23T08:27:32;9.85;;;3.08;;
24173;SDS011;12324;48.146;11.502;2023-03-23T08:29:58;6.88;;;2.67;;
24173;SDS011;12324;48.146;11.502;2023-03-23T08:32:25;7.57;;;2.70;;
24173;SDS011;12324;48.146;11.502;2023-03-23T08:34:51;8.32;;;2.42;;
24173;SDS011;12324;48.146;11.502;2023-03-23T08:37:17;6.93;;;2.83;;
24173;SDS011;12324;48.146;11.502;2023-03-23T08:39:43;7.18;;;2.53;;
24173;SDS011;12324;48.146;11.502;2023-03-23T08:42:10;7.20;;;3.08;;
24173;SDS011;12324;48.146;11.502;2023-03-23T08:44:36;5.50;;;2.60;;
24173;SDS011;12324;48.146;11.502;2023-03-23T08:47:03;7.97;;;2.72;;
24173;SDS011;12324;48.146;11.502;2023-03-23T08:49:30;8.52;;;3.45;;
24173;SDS011;12324;48.146;11.502;2023-03-23T08:52:00;11.80;;;2.78;;
24173;SDS011;12324;48.146;11.502;2023-03-23T08:54:26;8.88;;;2.95;;
24173;SDS011;12324;48.146;11.502;2023-03-23T08:56:54;10.15;;;3.33;;
24173;SDS011;12324;48.146;11.502;2023-03-23T08:59:20;8.43;;;3.28;;
24173;SDS011;12324;48.146;11.502;2023-03-23T09:01:46;12.05;;;3.25;;
24173;SDS011;12324;48.146;11.502;2023-03-23T09:04:12;13.05;;;3.75;;
24173;SDS011;12324;48.146;11.502;2023-03-23T09:06:39;7.88;;;2.67;;
24173;SDS011;12324;48.146;11.502;2023-03-23T09:09:05;8.80;;;2.70;;
24173;SDS011;12324;48.146;11.502;2023-03-23T09:11:35;5.22;;;2.40;;
24173;SDS011;12324;48.146;11.502;2023-03-23T09:14:05;12.43;;;2.88;;
24173;SDS011;12324;48.146;11.502;2023-03-23T09:16:31;9.43;;;2.78;;
24173;SDS011;12324;48.146;11.502;2023-03-23T09:18:58;6.03;;;2.67;;
24173;SDS011;12324;48.146;11.502;2023-03-23T09:21:24;8.38;;;2.50;;
24173;SDS011;12324;48.146;11.502;2023-03-23T09:23:51;6.13;;;2.33;;
24173;SDS011;12324;48.146;11.502;2023-03-23T09:26:17;6.15;;;3.00;;
24173;SDS011;12324;48.146;11.502;2023-03-23T09:28:43;20.15;;;3.58;;
24173;SDS011;12324;48.146;11.502;2023-03-23T09:31:10;17.13;;;3.30;;
24173;SDS011;12324;48.146;11.502;2023-03-23T09:33:37;11.82;;;3.05;;
24173;SDS011;12324;48.146;11.502;2023-03-23T09:36:03;17.23;;;4.43;;
24173;SDS011;12324;48.146;11.502;2023-03-23T09:38:32;8.23;;;3.35;;
24173;SDS011;12324;48.146;11.502;2023-03-23T09:41:15;12.05;;;3.85;;
24173;SDS011;12324;48.146;11.502;2023-03-23T09:43:47;9.32;;;3.20;;
24173;SDS011;12324;48.146;11.502;2023-03-23T09:46:23;10.75;;;3.40;;
24173;SDS011;12324;48.146;11.502;2023-03-23T09:48:58;12.93;;;4.00;;
24173;SDS011;12324;48.146;11.502;2023-03-23T09:51:30;11.43;;;3.92;;
24173;SDS011;12324;48.146;11.502;2023-03-23T09:54:04;7.47;;;3.13;;
24173;SDS011;12324;48.146;11.502;2023-03-23T09:56:35;9.65;;;3.65;;
24173;SDS011;12324;48.146;11.502;2023-03-23T09:59:14;10.75;;;3.65;;
24173;SDS011;12324;48.146;11.502;2023-03-23T10:01:48;12.82;;;3.88;;
24173;SDS011;12324;48.146;11.502;2023-03-23T10:07:19;10.02;;;4.30;;
24173;SDS011;12324;48.146;11.502;2023-03-23T10:09:47;7.10;;;3.70;;
24173;SDS011;12324;48.146;11.502;2023-03-23T10:12:27;15.85;;;4.22;;
24173;SDS011;12324;48.146;11.502;2023-03-23T10:15:00;10.57;;;3.08;;
24173;SDS011;12324;48.146;11.502;2023-03-23T10:18:08;9.30;;;3.47;;
24173;SDS011;12324;48.146;11.502;2023-03-23T10:23:13;7.05;;;3.03;;
24173;SDS011;12324;48.146;11.502;2023-03-23T10:25:50;8.27;;;2.97;;
24173;SDS011;12324;48.146;11.502;2023-03-23T10:28:34;6.15;;;3.30;;
24173;SDS011;12324;48.146;11.502;2023-03-23T10:31:10;9.05;;;3.28;;
24173;SDS011;12324;48.146;11.502;2023-03-23T10:34:03;7.97;;;3.00;;
24173;SDS011;12324;48.146;11.502;2023-03-23T10:36:36;10.52;;;3.28;;
24173;SDS011;12324;48.146;11.502;2023-03-23T10:39:10;8.70;;;2.72;;
24173;SDS011;12324;48.146;11.502;2023-03-23T10:41:38;7.47;;;3.15;;
24173;SDS011;12324;48.146;11.502;2023-03-23T10:44:11;10.05;;;3.53;;
24173;SDS011;12324;48.146;11.502;2023-03-23T10:46:56;8.15;;;2.90;;
24173;SDS011;12324;48.146;11.502;2023-03-23T10:49:23;7.95;;;3.40;;
24173;SDS011;12324;48.146;11.502;2023-03-23T10:54:56;11.27;;;3.50;;
24173;SDS011;12324;48.146;11.502;2023-03-23T10:57:25;7.35;;;3.20;;
24173;SDS011;12324;48.146;11.502;2023-03-23T11:00:39;7.90;;;3.38;;
24173;SDS011;12324;48.146;11.502;2023-03-23T11:02:48;11.77;;;3.90;;
24173;SDS011;12324;48.146;11.502;2023-03-23T11:05:32;9.85;;;3.47;;
24173;SDS011;12324;48.146;11.502;2023-03-23T11:08:10;7.38;;;3.90;;
24173;SDS011;12324;48.146;11.502;2023-03-23T11:13:10;7.53;;;3.40;;
24173;SDS011;12324;48.146;11.502;2023-03-23T11:15:42;7.85;;;3.58;;
24173;SDS011;12324;48.146;11.502;2023-03-23T11:18:17;8.73;;;3.97;;
24173;SDS011;12324;48.146;11.502;2023-03-23T11:20:58;9.45;;;3.70;;
24173;SDS011;12324;48.146;11.502;2023-03-23T11:23:26;9.52;;;3.63;;
24173;SDS011;12324;48.146;11.502;2023-03-23T11:28:45;12.45;;;4.18;;
24173;SDS011;12324;48.146;11.502;2023-03-23T11:31:33;7.88;;;3.90;;
24173;SDS011;12324;48.146;11.502;2023-03-23T11:36:29;13.40;;;3.85;;
24173;SDS011;12324;48.146;11.502;2023-03-23T11:38:56;8.18;;;3.50;;
24173;SDS011;12324;48.146;11.502;2023-03-23T11:41:23;10.13;;;3.75;;
24173;SDS011;12324;48.146;11.502;2023-03-23T11:43:51;8.75;;;3.40;;
24173;SDS011;12324;48.146;11.502;2023-03-23T11:46:52;10.68;;;4.13;;
24173;SDS011;12324;48.146;11.502;2023-03-23T11:49:35;9.93;;;4.40;;
24173;SDS011;12324;48.146;11.502;2023-03-23T11:52:02;11.55;;;4.30;;
24173;SDS011;12324;48.146;11.502;2023-03-23T11:56:55;7.57;;;3.22;;
24173;SDS011;12324;48.146;11.502;2023-03-23T11:59:28;8.98;;;3.92;;
24173;SDS011;12324;48.146;11.502;2023-03-23T12:04:54;9.05;;;4.00;;
24173;SDS011;12324;48.146;11.502;2023-03-23T12:10:16;9.10;;;3.92;;
24173;SDS011;12324;48.146;11.502;2023-03-23T12:13:02;11.63;;;3.78;;
24173;SDS011;12324;48.146;11.502;2023-03-23T12:28:53;10.30;;;3.83;;
24173;SDS011;12324;48.146;11.502;2023-03-23T12:41:55;8.50;;;2.88;;
24173;SDS011;12324;48.146;11.502;2023-03-23T12:44:26;9.32;;;3.33;;
24173;SDS011;12324;48.146;11.502;2023-03-23T12:52:26;6.45;;;2.80;;
24173;SDS011;12324;48.146;11.502;2023-03-23T12:57:43;10.15;;;2.80;;
24173;SDS011;12324;48.146;11.502;2023-03-23T13:00:16;7.00;;;2.78;;
24173;SDS011;12324;48.146;11.502;2023-03-23T13:02:53;7.80;;;2.67;;
24173;SDS011;12324;48.146;11.502;2023-03-23T13:07:56;8.10;;;2.78;;
24173;SDS011;12324;48.146;11.502;2023-03-23T13:10:23;9.40;;;2.78;;
24173;SDS011;12324;48.146;11.502;2023-03-23T13:12:52;10.20;;;2.70;;
24173;SDS011;12324;48.146;11.502;2023-03-23T13:15:27;5.80;;;1.90;;
24173;SDS011;12324;48.146;11.502;2023-03-23T13:23:16;8.38;;;2.33;;
24173;SDS011;12324;48.146;11.502;2023-03-23T13:25:54;5.05;;;2.38;;
24173;SDS011;12324;48.146;11.502;2023-03-23T13:28:25;8.30;;;2.83;;
24173;SDS011;12324;48.146;11.502;2023-03-23T13:30:57;5.80;;;2.47;;
24173;SDS011;12324;48.146;11.502;2023-03-23T13:33:25;5.30;;;2.50;;
24173;SDS011;12324;48.146;11.502;2023-03-23T13:35:51;6.82;;;2.40;;
24173;SDS011;12324;48.146;11.502;2023-03-23T13:38:23;8.15;;;2.83;;
24173;SDS011;12324;48.146;11.502;2023-03-23T13:40:50;6.18;;;2.60;;
24173;SDS011;12324;48.146;11.502;2023-03-23T13:43:27;9.80;;;2.45;;
24173;SDS011;12324;48.146;11.502;2023-03-23T13:45:54;5.78;;;2.10;;
24173;SDS011;12324;48.146;11.502;2023-03-23T13:48:23;6.95;;;2.47;;
24173;SDS011;12324;48.146;11.502;2023-03-23T13:53:21;5.10;;;2.40;;
24173;SDS011;12324;48.146;11.502;2023-03-23T13:55:49;6.15;;;2.63;;
24173;SDS011;12324;48.146;11.502;2023-03-23T13:58:26;5.97;;;2.38;;
24173;SDS011;12324;48.146;11.502;2023-03-23T14:03:39;4.32;;;2.30;;
24173;SDS011;12324;48.146;11.502;2023-03-23T14:06:13;4.65;;;2.28;;
24173;SDS011;12324;48.146;11.502;2023-03-23T14:08:42;7.53;;;2.53;;
24173;SDS011;12324;48.146;11.502;2023-03-23T14:11:11;7.95;;;2.40;;
24173;SDS011;12324;48.146;11.502;2023-03-23T14:16:20;3.30;;;1.90;;
24173;SDS011;12324;48.146;11.502;2023-03-23T14:19:21;3.75;;;1.83;;
24173;SDS011;12324;48.146;11.502;2023-03-23T14:21:40;5.32;;;2.20;;
24173;SDS011;12324;48.146;11.502;2023-03-23T14:24:15;3.72;;;1.77;;
24173;SDS011;12324;48.146;11.502;2023-03-23T14:26:41;7.03;;;2.40;;
24173;SDS011;12324;48.146;11.502;2023-03-23T14:29:09;5.25;;;2.53;;
24173;SDS011;12324;48.146;11.502;2023-03-23T14:31:35;5.10;;;2.40;;
24173;SDS011;12324;48.146;11.502;2023-03-23T14:34:10;4.97;;;1.88;;
24173;SDS011;12324;48.146;11.502;2023-03-23T14:36:38;5.78;;;2.13;;
24173;SDS011;12324;48.146;11.502;2023-03-23T14:39:26;5.50;;;2.40;;
24173;SDS011;12324;48.146;11.502;2023-03-23T14:41:52;5.70;;;2.28;;
24173;SDS011;12324;48.146;11.502;2023-03-23T14:44:26;5.93;;;2.22;;
24173;SDS011;12324;48.146;11.502;2023-03-23T14:46:54;8.02;;;2.60;;
24173;SDS011;12324;48.146;11.502;2023-03-23T14:49:24;6.70;;;2.67;;
24173;SDS011;12324;48.146;11.502;2023-03-23T14:51:53;6.03;;;2.30;;
24173;SDS011;12324;48.146;11.502;2023-03-23T14:54:25;6.88;;;2.55;;
24173;SDS011;12324;48.146;11.502;2023-03-23T14:56:51;8.02;;;2.58;;
24173;SDS011;12324;48.146;11.502;2023-03-23T14:59:17;8.68;;;2.30;;
24173;SDS011;12324;48.146;11.502;2023-03-23T15:01:43;5.53;;;2.50;;
24173;SDS011;12324;48.146;11.502;2023-03-23T15:06:41;4.90;;;2.08;;
24173;SDS011;12324;48.146;11.502;2023-03-23T15:09:12;8.65;;;2.80;;
24173;SDS011;12324;48.146;11.502;2023-03-23T15:11:39;8.30;;;2.92;;
24173;SDS011;12324;48.146;11.502;2023-03-23T15:14:13;6.50;;;2.67;;
24173;SDS011;12324;48.146;11.502;2023-03-23T15:16:40;8.13;;;2.75;;
24173;SDS011;12324;48.146;11.502;2023-03-23T15:19:12;7.38;;;2.55;;
24173;SDS011;12324;48.146;11.502;2023-03-23T15:24:33;5.35;;;2.65;;
24173;SDS011;12324;48.146;11.502;2023-03-23T15:27:42;7.80;;;2.95;;
24173;SDS011;12324;48.146;11.502;2023-03-23T15:29:50;7.07;;;2.92;;
24173;SDS011;12324;48.146;11.502;2023-03-23T15:32:20;7.00;;;2.85;;
24173;SDS011;12324;48.146;11.502;2023-03-23T15:34:47;8.48;;;3.30;;
24173;SDS011;12324;48.146;11.502;2023-03-23T15:37:21;6.88;;;3.03;;
24173;SDS011;12324;48.146;11.502;2023-03-23T15:39:47;6.65;;;3.05;;
24173;SDS011;12324;48.146;11.502;2023-03-23T15:42:22;7.00;;;3.22;;
24173;SDS011;12324;48.146;11.502;2023-03-23T15:44:55;7.03;;;2.90;;
24173;SDS011;12324;48.146;11.502;2023-03-23T15:47:21;6.10;;;2.88;;
24173;SDS011;12324;48.146;11.502;2023-03-23T15:49:58;10.45;;;2.95;;
24173;SDS011;12324;48.146;11.502;2023-03-23T15:52:24;13.10;;;2.72;;
24173;SDS011;12324;48.146;11.502;2023-03-23T15:54:50;5.35;;;2.65;;
24173;SDS011;12324;48.146;11.502;2023-03-23T15:57:16;11.05;;;2.80;;
24173;SDS011;12324;48.146;11.502;2023-03-23T15:59:42;5.20;;;2.40;;
24173;SDS011;12324;48.146;11.502;2023-03-23T16:02:13;9.90;;;2.72;;
24173;SDS011;12324;48.146;11.502;2023-03-23T16:04:42;8.88;;;2.90;;
24173;SDS011;12324;48.146;11.502;2023-03-23T16:07:12;8.02;;;2.90;;
24173;SDS011;12324;48.146;11.502;2023-03-23T16:09:39;7.95;;;2.22;;
24173;SDS011;12324;48.146;11.502;2023-03-23T16:12:11;5.78;;;2.40;;
24173;SDS011;12324;48.146;11.502;2023-03-23T16:14:39;5.50;;;2.33;;
24173;SDS011;12324;48.146;11.502;2023-03-23T16:17:08;9.05;;;2.50;;
24173;SDS011;12324;48.146;11.502;2023-03-23T16:19:36;5.60;;;2.58;;
24173;SDS011;12324;48.146;11.502;2023-03-23T16:22:03;7.55;;;3.10;;
24173;SDS011;12324;48.146;11.502;2023-03-23T16:24:30;7.90;;;2.88;;
24173;SDS011;12324;48.146;11.502;2023-03-23T16:26:57;6.78;;;2.40;;